Time;durP1;ratioP1;P1;durP2;ratioP2;P2;SDS_P1;SDS_P2;PMS_P1;PMS_P2;Temp;Humidity;BMP_temperature;BMP_pressure;BME280_temperature;BME280_humidity;BME280_pressure;Samples;Min_cycle;Max_cycle;Signal;HPM_P1;HPM_P2
2023/06/06 00:02:16;;;;;;;5.85;2.47;;;11.10;99.90;;;;;;4934465;28;20382;-74
2023/06/06 00:04:45;;;;;;;11.43;2.60;;;11.10;99.90;;;;;;4965890;28;20046;-74
2023/06/06 00:07:12;;;;;;;7.68;2.65;;;11.10;99.90;;;;;;4967593;28;20406;-73
2023/06/06 00:09:38;;;;;;;8.02;2.70;;;11.10;99.90;;;;;;4949819;28;20053;-74
2023/06/06 00:12:05;;;;;;;8.60;2.80;;;11.00;99.90;;;;;;4975229;28;20050;-74
2023/06/06 00:14:32;;;;;;;7.40;2.72;;;11.00;99.90;;;;;;4952640;28;20054;-72
2023/06/06 00:17:00;;;;;;;8.82;3.28;;;11.00;99.90;;;;;;4950999;28;20050;-74
2023/06/06 00:19:25;;;;;;;6.70;3.00;;;11.00;99.90;;;;;;4968611;28;20113;-72
2023/06/06 00:21:52;;;;;;;7.32;2.75;;;11.00;99.90;;;;;;4967281;28;20030;-72
2023/06/06 00:24:18;;;;;;;8.10;2.80;;;10.90;99.90;;;;;;4957847;28;20057;-73
2023/06/06 00:26:43;;;;;;;5.18;2.47;;;11.00;99.90;;;;;;4965881;28;20056;-74
2023/06/06 00:29:09;;;;;;;8.13;3.35;;;11.00;99.90;;;;;;4968682;28;20397;-73
2023/06/06 00:31:35;;;;;;;7.57;2.85;;;11.00;99.90;;;;;;4965329;28;20521;-73
2023/06/06 00:34:01;;;;;;;10.65;3.97;;;10.90;99.90;;;;;;4966414;28;20062;-72
2023/06/06 00:36:27;;;;;;;8.02;3.20;;;10.90;99.90;;;;;;4934608;28;20629;-75
2023/06/06 00:38:54;;;;;;;7.28;3.28;;;11.00;99.90;;;;;;4950068;28;20047;-73
2023/06/06 00:41:20;;;;;;;7.30;3.38;;;11.00;99.90;;;;;;4982609;28;20133;-73
2023/06/06 00:43:46;;;;;;;12.23;3.53;;;11.00;99.90;;;;;;4959946;28;20126;-74
2023/06/06 00:46:13;;;;;;;7.97;3.72;;;11.00;99.90;;;;;;4951201;28;20052;-73
2023/06/06 00:48:39;;;;;;;14.68;3.88;;;11.00;99.90;;;;;;4949648;28;20397;-74
2023/06/06 00:51:06;;;;;;;8.57;3.55;;;11.00;99.90;;;;;;4951588;28;20049;-74
2023/06/06 00:53:32;;;;;;;9.82;3.80;;;10.90;99.90;;;;;;4934519;28;20138;-72
2023/06/06 00:55:58;;;;;;;9.70;3.45;;;11.00;99.90;;;;;;4934182;28;20070;-72
2023/06/06 00:58:24;;;;;;;8.23;3.15;;;11.00;99.90;;;;;;4967070;28;20085;-73
2023/06/06 01:00:51;;;;;;;11.30;3.55;;;11.00;99.90;;;;;;4965252;28;20127;-73
2023/06/06 01:03:20;;;;;;;10.57;3.53;;;11.00;99.90;;;;;;4950669;28;20505;-73
2023/06/06 01:05:47;;;;;;;9.45;3.13;;;11.00;99.90;;;;;;4945996;28;20051;-74
2023/06/06 01:08:13;;;;;;;6.70;3.10;;;11.00;99.90;;;;;;4967071;28;20047;-74
2023/06/06 01:10:40;;;;;;;8.93;3.17;;;11.00;99.90;;;;;;4949313;28;20054;-73
2023/06/06 01:13:33;;;;;;;7.97;3.05;;;11.00;99.90;;;;;;4982625;28;20050;-74
2023/06/06 01:16:03;;;;;;;11.00;3.22;;;11.00;99.90;;;;;;4949998;28;20054;-73
2023/06/06 01:18:31;;;;;;;;;;;10.90;99.90;;;;;;4950209;28;20451;-73
2023/06/06 01:20:58;;;;;;;8.43;2.78;;;11.00;99.90;;;;;;4966574;28;19985;-73
2023/06/06 01:23:27;;;;;;;13.60;3.53;;;11.00;99.90;;;;;;4965746;28;20089;-74
2023/06/06 01:25:54;;;;;;;11.15;3.25;;;11.00;99.90;;;;;;4953711;28;20410;-74
2023/06/06 01:28:20;;;;;;;12.25;2.92;;;11.00;99.90;;;;;;4970297;28;20086;-73
2023/06/06 01:30:46;;;;;;;10.60;2.83;;;10.90;99.90;;;;;;4969432;28;20082;-73
2023/06/06 01:33:54;;;;;;;8.93;2.95;;;11.00;99.90;;;;;;4954313;28;20472;-73
2023/06/06 01:36:30;;;;;;;7.13;2.95;;;11.00;99.90;;;;;;4902346;29;21894;-74
2023/06/06 01:39:03;;;;;;;13.55;3.25;;;11.00;99.90;;;;;;4911214;29;20056;-73
2023/06/06 01:41:30;;;;;;;8.15;2.83;;;11.00;99.90;;;;;;4937295;28;20054;-73
2023/06/06 01:43:57;;;;;;;7.00;2.58;;;11.00;99.90;;;;;;4952399;28;20050;-73
2023/06/06 01:46:25;;;;;;;13.60;3.60;;;11.00;99.90;;;;;;4971032;28;20053;-73
2023/06/06 01:48:52;;;;;;;9.00;3.25;;;11.00;99.90;;;;;;4951655;28;20047;-74
2023/06/06 01:51:18;;;;;;;9.93;3.30;;;11.00;99.90;;;;;;4970466;28;20055;-74
2023/06/06 01:53:45;;;;;;;8.70;3.60;;;11.10;99.90;;;;;;4952940;28;20132;-73
2023/06/06 01:56:13;;;;;;;8.73;3.10;;;11.00;99.90;;;;;;4953239;28;20561;-73
2023/06/06 01:58:43;;;;;;;9.05;2.63;;;11.10;99.90;;;;;;4953031;28;20055;-73
2023/06/06 02:01:08;;;;;;;8.75;2.78;;;11.00;99.90;;;;;;4936820;28;20093;-74
2023/06/06 02:03:36;;;;;;;11.05;3.25;;;11.10;99.90;;;;;;4953960;28;20065;-72
2023/06/06 02:06:04;;;;;;;6.20;2.90;;;11.00;99.90;;;;;;4967822;28;20109;-74
2023/06/06 02:08:30;;;;;;;12.60;3.38;;;11.10;99.90;;;;;;4951147;28;20058;-74
2023/06/06 02:10:56;;;;;;;12.52;3.35;;;11.10;99.90;;;;;;4963804;28;20043;-75
2023/06/06 02:13:22;;;;;;;10.82;3.92;;;11.10;99.90;;;;;;4969852;28;20047;-74
2023/06/06 02:15:49;;;;;;;10.70;3.17;;;11.10;99.90;;;;;;4936694;28;20152;-73
2023/06/06 02:18:15;;;;;;;11.55;3.13;;;11.10;99.90;;;;;;4936472;28;20046;-74
2023/06/06 02:20:41;;;;;;;12.52;3.17;;;11.10;99.90;;;;;;4937326;28;20058;-73
2023/06/06 02:23:06;;;;;;;8.75;2.78;;;11.10;99.90;;;;;;4967792;28;20035;-74
2023/06/06 02:25:33;;;;;;;10.05;3.20;;;11.10;99.90;;;;;;4969451;28;20129;-73
2023/06/06 02:27:59;;;;;;;9.73;2.63;;;11.00;99.90;;;;;;4952391;28;20042;-73
2023/06/06 02:30:25;;;;;;;8.35;2.90;;;11.10;99.90;;;;;;4953221;28;20062;-73
2023/06/06 02:32:51;;;;;;;10.63;3.05;;;11.00;99.90;;;;;;4967521;28;20038;-73
2023/06/06 02:35:21;;;;;;;10.23;2.92;;;11.00;99.90;;;;;;4952710;28;20098;-74
2023/06/06 02:37:46;;;;;;;8.68;2.80;;;11.00;99.90;;;;;;4952874;28;20505;-72
2023/06/06 02:40:13;;;;;;;11.65;3.45;;;11.10;99.90;;;;;;4963999;28;20079;-73
2023/06/06 02:42:39;;;;;;;9.27;2.50;;;11.00;99.90;;;;;;4953137;28;20531;-73
2023/06/06 02:45:10;;;;;;;14.40;3.22;;;11.00;99.90;;;;;;4968663;28;20046;-72
2023/06/06 02:47:36;;;;;;;4.85;2.20;;;11.00;99.90;;;;;;4953135;28;20074;-73
2023/06/06 02:50:03;;;;;;;9.00;2.40;;;11.00;99.90;;;;;;4945641;28;20162;-73
2023/06/06 02:52:31;;;;;;;11.32;2.63;;;11.00;99.90;;;;;;4969040;28;20050;-72
2023/06/06 02:54:58;;;;;;;5.63;2.53;;;11.10;99.90;;;;;;4948560;28;20063;-73
2023/06/06 02:57:23;;;;;;;5.07;2.30;;;11.00;99.90;;;;;;4967520;28;20051;-73
2023/06/06 02:59:50;;;;;;;8.75;2.55;;;11.00;99.90;;;;;;4958860;28;20461;-72
2023/06/06 03:02:16;;;;;;;7.95;2.83;;;11.00;99.90;;;;;;4957070;28;20409;-73
2023/06/06 03:04:43;;;;;;;8.85;2.90;;;11.00;99.90;;;;;;4936686;28;20042;-72
2023/06/06 03:07:10;;;;;;;12.73;2.85;;;11.00;99.90;;;;;;4968245;28;20038;-72
2023/06/06 03:09:37;;;;;;;7.40;2.60;;;11.00;99.90;;;;;;4931372;29;20068;-72
2023/06/06 03:12:03;;;;;;;4.65;2.70;;;11.00;99.90;;;;;;4940513;28;20046;-72
2023/06/06 03:14:29;;;;;;;8.35;2.22;;;11.00;99.90;;;;;;4935589;28;20488;-74
2023/06/06 03:16:56;;;;;;;7.43;2.42;;;10.90;99.90;;;;;;4936685;28;20114;-74
2023/06/06 03:19:23;;;;;;;8.13;2.55;;;10.90;99.90;;;;;;4966554;28;20050;-73
2023/06/06 03:21:48;;;;;;;11.00;2.97;;;10.90;99.90;;;;;;4938273;29;20552;-73
2023/06/06 03:24:15;;;;;;;12.52;3.28;;;10.90;99.90;;;;;;4948763;28;20055;-73
2023/06/06 03:26:44;;;;;;;12.95;3.22;;;10.80;99.90;;;;;;4952144;28;20516;-72
2023/06/06 03:29:10;;;;;;;10.73;3.00;;;10.80;99.90;;;;;;4950881;28;20049;-73
2023/06/06 03:31:37;;;;;;;11.65;3.10;;;10.80;99.90;;;;;;4960350;28;20460;-73
2023/06/06 03:34:03;;;;;;;9.35;3.35;;;10.80;99.90;;;;;;4962268;28;20072;-72
2023/06/06 03:36:32;;;;;;;11.40;2.83;;;10.80;99.90;;;;;;4948707;28;20134;-73
2023/06/06 03:39:00;;;;;;;8.03;2.93;;;10.90;99.90;;;;;;4952129;28;20051;-72
2023/06/06 03:41:32;;;;;;;8.48;3.08;;;10.90;99.90;;;;;;4930493;29;20044;-74
2023/06/06 03:44:00;;;;;;;7.65;2.85;;;10.90;99.90;;;;;;4947965;28;20051;-73
2023/06/06 03:46:26;;;;;;;6.55;2.95;;;10.90;99.90;;;;;;4949417;28;20090;-73
2023/06/06 03:48:51;;;;;;;11.30;3.08;;;10.90;99.90;;;;;;4967743;28;20081;-72
2023/06/06 03:51:17;;;;;;;12.40;2.90;;;10.90;99.90;;;;;;4935248;28;20128;-72
2023/06/06 03:53:44;;;;;;;12.63;3.15;;;10.90;99.90;;;;;;4919303;29;20039;-73
2023/06/06 03:56:10;;;;;;;9.30;3.03;;;10.90;99.90;;;;;;4962346;28;20063;-73
2023/06/06 03:58:37;;;;;;;11.75;3.45;;;10.90;99.90;;;;;;4934744;28;20109;-72
2023/06/06 04:01:05;;;;;;;11.88;3.40;;;11.00;99.90;;;;;;4949157;28;20165;-73
2023/06/06 04:03:36;;;;;;;10.15;3.13;;;11.00;99.90;;;;;;4926551;28;20497;-74
2023/06/06 04:06:04;;;;;;;13.57;3.67;;;11.00;99.90;;;;;;4955968;28;20532;-73
2023/06/06 04:08:35;;;;;;;13.52;4.05;;;11.00;99.90;;;;;;4950974;28;20054;-72
2023/06/06 04:11:01;;;;;;;12.40;3.70;;;11.00;99.90;;;;;;4950057;28;20153;-72
2023/06/06 04:13:27;;;;;;;8.95;2.97;;;11.00;99.90;;;;;;4947569;29;20421;-73
2023/06/06 04:15:53;;;;;;;8.50;3.25;;;11.00;99.90;;;;;;4942995;29;20043;-73
2023/06/06 04:18:21;;;;;;;10.77;3.15;;;11.10;99.90;;;;;;4966281;28;20054;-72
2023/06/06 04:20:47;;;;;;;14.70;3.80;;;11.10;99.90;;;;;;4933610;28;20149;-73
2023/06/06 04:23:13;;;;;;;17.38;3.60;;;11.10;99.90;;;;;;4931322;29;20654;-74
2023/06/06 04:25:39;;;;;;;12.48;3.22;;;11.10;99.90;;;;;;4941321;28;20466;-74
2023/06/06 04:28:07;;;;;;;11.52;3.15;;;11.10;99.90;;;;;;4947560;28;20049;-72
2023/06/06 04:30:36;;;;;;;16.77;3.95;;;11.10;99.90;;;;;;4967294;28;20484;-73
2023/06/06 04:33:02;;;;;;;11.07;2.85;;;11.10;99.90;;;;;;4948093;28;20057;-73
2023/06/06 06:40:31;;;;;;;5.03;2.50;;;13.00;99.90;;;;;;4994998;23;20189;-73
2023/06/06 06:42:56;;;;;;;6.75;2.45;;;13.00;99.90;;;;;;5000226;28;20132;-73
2023/06/06 06:45:23;;;;;;;5.78;2.70;;;13.00;99.90;;;;;;4994169;28;20377;-73
2023/06/06 06:47:49;;;;;;;6.45;2.65;;;13.00;99.90;;;;;;4992014;28;20045;-74
2023/06/06 06:50:15;;;;;;;9.82;2.58;;;13.10;99.90;;;;;;4990882;28;20080;-75
2023/06/06 06:52:41;;;;;;;8.30;2.30;;;13.10;99.90;;;;;;4991457;28;20408;-73
2023/06/06 06:55:07;;;;;;;8.98;2.88;;;13.30;99.90;;;;;;4989517;28;20057;-73
2023/06/06 06:57:38;;;;;;;10.07;3.38;;;13.50;99.90;;;;;;4991676;28;20045;-73
2023/06/06 07:00:15;;;;;;;11.63;3.05;;;13.60;99.90;;;;;;4958052;28;20064;-73
2023/06/06 07:02:44;;;;;;;9.98;3.70;;;13.50;99.90;;;;;;4990709;28;20438;-72
2023/06/06 07:05:17;;;;;;;10.60;3.13;;;13.40;99.90;;;;;;4975472;28;20069;-72
2023/06/06 07:07:52;;;;;;;9.35;3.53;;;13.40;99.90;;;;;;4989341;28;20053;-72
2023/06/06 07:10:19;;;;;;;9.15;3.17;;;13.30;99.90;;;;;;4974717;28;20531;-73
2023/06/06 07:12:49;;;;;;;8.85;3.22;;;13.40;99.90;;;;;;4987690;28;20487;-74
2023/06/06 07:15:16;;;;;;;5.82;3.03;;;13.40;99.90;;;;;;5005297;28;20068;-73
2023/06/06 07:17:50;;;;;;;10.88;3.10;;;13.50;99.90;;;;;;4972563;28;20061;-73
2023/06/06 07:20:18;;;;;;;9.40;3.22;;;13.60;99.90;;;;;;4989292;28;20190;-74
2023/06/06 07:22:43;;;;;;;9.93;3.13;;;13.60;99.90;;;;;;4988589;28;20054;-73
2023/06/06 07:25:09;;;;;;;11.07;3.47;;;13.50;99.90;;;;;;4964011;28;20054;-74
2023/06/06 07:27:37;;;;;;;8.90;3.85;;;13.60;99.90;;;;;;4968199;28;20053;-74
2023/06/06 07:30:14;;;;;;;13.20;3.90;;;13.60;99.90;;;;;;4971215;28;20056;-72
2023/06/06 07:32:45;;;;;;;9.80;3.33;;;13.70;99.90;;;;;;4975685;28;20050;-73
2023/06/06 07:35:12;;;;;;;9.40;3.15;;;13.80;99.90;;;;;;4988643;28;20611;-73
2023/06/06 07:37:41;;;;;;;7.82;3.17;;;14.00;99.90;;;;;;5006058;28;20434;-73
2023/06/06 07:40:10;;;;;;;7.43;3.13;;;14.20;99.90;;;;;;5016661;28;20053;-73
2023/06/06 07:42:37;;;;;;;14.27;3.40;;;14.50;99.90;;;;;;5007794;28;20057;-73
2023/06/06 07:45:03;;;;;;;9.68;3.60;;;14.70;99.90;;;;;;5006343;28;20053;-72
2023/06/06 07:47:29;;;;;;;10.10;2.90;;;14.80;99.90;;;;;;5007017;28;20049;-73
2023/06/06 07:49:55;;;;;;;10.40;3.53;;;15.00;99.90;;;;;;4991023;28;20040;-73
2023/06/06 07:52:21;;;;;;;9.63;3.38;;;15.20;99.70;;;;;;5002388;28;20476;-74
2023/06/06 07:54:46;;;;;;;14.65;4.00;;;15.40;99.90;;;;;;5004739;28;20041;-73
2023/06/06 07:57:16;;;;;;;11.45;3.13;;;15.50;96.50;;;;;;5003602;28;20393;-73
2023/06/06 07:59:45;;;;;;;5.32;3.45;;;15.60;96.50;;;;;;4996928;28;20053;-72
2023/06/06 08:02:14;;;;;;;8.43;3.35;;;15.70;94.80;;;;;;5007954;28;20042;-73
2023/06/06 08:04:41;;;;;;;11.23;3.53;;;15.70;91.70;;;;;;5023327;28;20064;-73
2023/06/06 08:07:07;;;;;;;8.63;3.55;;;15.80;94.40;;;;;;5006193;28;20053;-73
2023/06/06 08:09:33;;;;;;;17.85;3.50;;;15.80;93.30;;;;;;5017410;28;20045;-72
2023/06/06 08:11:59;;;;;;;6.75;3.15;;;15.80;90.80;;;;;;5006526;28;20060;-73
2023/06/06 08:14:25;;;;;;;10.10;3.40;;;16.00;92.20;;;;;;5007133;28;20136;-72
2023/06/06 08:16:51;;;;;;;15.18;3.90;;;16.10;90.00;;;;;;5005186;28;20045;-74
2023/06/06 08:19:16;;;;;;;17.33;3.38;;;16.10;85.60;;;;;;5003218;28;20040;-73
2023/06/06 08:21:42;;;;;;;9.18;4.20;;;16.20;86.50;;;;;;5023211;28;20080;-72
2023/06/06 08:24:08;;;;;;;9.13;3.50;;;16.30;87.40;;;;;;5022704;28;20057;-73
2023/06/06 08:26:33;;;;;;;7.28;3.05;;;16.30;79.80;;;;;;5023569;28;20503;-74
2023/06/06 08:28:59;;;;;;;7.00;3.03;;;16.40;84.20;;;;;;4989116;28;20511;-75
2023/06/06 08:31:25;;;;;;;8.23;3.70;;;16.40;73.10;;;;;;5002599;28;20052;-74
2023/06/06 08:33:50;;;;;;;9.65;3.30;;;16.40;76.30;;;;;;4988109;28;20069;-73
2023/06/06 08:36:16;;;;;;;8.32;3.25;;;16.50;82.30;;;;;;5003464;28;20064;-73
2023/06/06 08:38:45;;;;;;;7.20;2.95;;;16.70;82.00;;;;;;5003580;28;20046;-73
2023/06/06 08:41:12;;;;;;;14.38;4.07;;;16.80;91.30;;;;;;5005219;28;20054;-73
2023/06/06 08:43:39;;;;;;;14.55;5.00;;;17.00;72.40;;;;;;5000807;28;20049;-73
2023/06/06 08:46:06;;;;;;;11.10;3.58;;;17.20;89.20;;;;;;5003159;28;20041;-74
2023/06/06 08:48:35;;;;;;;8.68;2.80;;;17.60;72.60;;;;;;4999113;28;20053;-73
2023/06/06 08:51:03;;;;;;;;;;;17.60;75.50;;;;;;5007360;28;20049;-74
2023/06/06 08:53:31;;;;;;;6.00;2.78;;;17.80;71.40;;;;;;4995888;28;19925;-74
2023/06/06 08:55:57;;;;;;;9.68;3.67;;;17.90;64.70;;;;;;5007220;28;20154;-72
2023/06/06 08:58:23;;;;;;;8.00;3.88;;;17.90;65.10;;;;;;5008627;28;20099;-73
2023/06/06 09:00:53;;;;;;;14.15;3.42;;;17.90;61.00;;;;;;5006878;28;20053;-73
2023/06/06 09:03:19;;;;;;;9.23;3.30;;;17.90;64.00;;;;;;5008158;28;20053;-73
2023/06/06 09:05:47;;;;;;;6.97;2.70;;;17.80;57.80;;;;;;5006662;28;20049;-73
2023/06/06 09:08:13;;;;;;;9.45;2.80;;;17.60;62.50;;;;;;5006687;28;20077;-73
2023/06/06 09:10:39;;;;;;;8.90;3.05;;;17.60;67.50;;;;;;5007493;28;20050;-73
2023/06/06 09:13:04;;;;;;;7.95;3.15;;;17.70;81.20;;;;;;4989970;28;20102;-73
2023/06/06 09:15:30;;;;;;;9.55;3.40;;;17.90;67.30;;;;;;5008396;28;20049;-73
2023/06/06 09:17:56;;;;;;;11.70;3.15;;;18.00;57.10;;;;;;5005804;28;20757;-73
2023/06/06 09:20:23;;;;;;;6.20;3.03;;;17.90;60.70;;;;;;4986254;28;20057;-74
2023/06/06 09:22:50;;;;;;;10.82;2.63;;;17.70;59.20;;;;;;5002165;28;20447;-72
2023/06/06 09:25:27;;;;;;;7.47;2.53;;;17.60;60.80;;;;;;5003910;28;20510;-75
2023/06/06 09:28:00;;;;;;;11.43;2.85;;;17.50;63.70;;;;;;4995456;28;20051;-80
2023/06/06 09:30:28;;;;;;;9.45;3.22;;;17.40;58.40;;;;;;4996616;28;20473;-74
2023/06/06 09:33:04;;;;;;;10.57;2.95;;;17.30;60.40;;;;;;4989637;28;20041;-75
2023/06/06 09:35:31;;;;;;;10.13;2.63;;;17.30;64.70;;;;;;5007522;28;20136;-74
2023/06/06 09:38:06;;;;;;;9.07;2.80;;;17.20;62.70;;;;;;5007405;28;20482;-71
2023/06/06 09:40:33;;;;;;;10.23;2.80;;;17.10;62.30;;;;;;4990673;28;20049;-75
2023/06/06 09:42:59;;;;;;;14.60;3.40;;;17.10;67.30;;;;;;4957685;28;20069;-74
2023/06/06 09:45:25;;;;;;;6.60;2.85;;;17.10;66.90;;;;;;4990171;28;20439;-75
2023/06/06 09:47:51;;;;;;;9.15;2.65;;;17.10;64.60;;;;;;4991056;28;20103;-75
2023/06/06 09:50:20;;;;;;;12.43;3.20;;;17.10;61.10;;;;;;4990479;28;20038;-75
2023/06/06 09:52:51;;;;;;;13.10;3.42;;;17.00;58.10;;;;;;4984206;28;20046;-74
2023/06/06 09:55:18;;;;;;;5.80;2.75;;;16.90;65.10;;;;;;4990184;28;20059;-74
2023/06/06 09:57:47;;;;;;;9.15;3.50;;;16.90;67.80;;;;;;4991712;28;20049;-74
2023/06/06 10:00:14;;;;;;;9.00;3.10;;;16.80;67.90;;;;;;4989890;28;20046;-73
2023/06/06 10:02:42;;;;;;;13.65;3.63;;;16.80;64.40;;;;;;4991858;28;20050;-74
2023/06/06 10:05:11;;;;;;;8.73;3.15;;;16.80;67.90;;;;;;4988576;28;20058;-74
2023/06/06 10:07:44;;;;;;;8.65;2.90;;;16.90;65.30;;;;;;4979183;28;20163;-74
2023/06/06 10:10:12;;;;;;;6.45;2.97;;;16.90;60.90;;;;;;4988352;28;20104;-74
2023/06/06 10:12:39;;;;;;;8.35;3.17;;;16.80;66.00;;;;;;4996894;28;20068;-74
2023/06/06 10:15:09;;;;;;;10.10;2.85;;;17.00;68.10;;;;;;4989883;28;20128;-74
2023/06/06 10:17:37;;;;;;;6.50;2.85;;;17.00;66.20;;;;;;4979924;28;20042;-74
2023/06/06 10:20:07;;;;;;;8.40;3.83;;;17.00;65.60;;;;;;4989717;28;20076;-73
2023/06/06 10:22:40;;;;;;;12.52;3.10;;;16.90;65.80;;;;;;4968256;28;20670;-74
2023/06/06 10:25:13;;;;;;;8.98;3.38;;;16.90;64.80;;;;;;5011053;28;20050;-75
2023/06/06 10:27:54;;;;;;;13.18;3.58;;;16.80;62.80;;;;;;4995780;28;20056;-74
2023/06/06 10:30:26;;;;;;;10.13;3.20;;;16.70;65.90;;;;;;5013017;28;20366;-74
2023/06/06 10:33:07;;;;;;;11.65;3.60;;;16.70;62.70;;;;;;4985747;28;20042;-75
2023/06/06 10:35:34;;;;;;;8.48;3.22;;;16.50;65.00;;;;;;4973846;28;20058;-68
2023/06/06 10:38:08;;;;;;;10.75;3.53;;;16.40;68.50;;;;;;4990446;28;20514;-68
2023/06/06 10:40:50;;;;;;;10.02;2.53;;;16.40;73.50;;;;;;5006683;28;20133;-68
2023/06/06 10:43:23;;;;;;;8.02;3.30;;;16.40;70.60;;;;;;4997832;28;20124;-67
2023/06/06 10:45:50;;;;;;;20.23;4.60;;;16.30;64.70;;;;;;5013549;28;20464;-68
2023/06/06 10:48:16;;;;;;;11.90;3.03;;;16.30;69.80;;;;;;5013546;28;20117;-68
2023/06/06 10:50:53;;;;;;;9.40;3.33;;;16.30;71.60;;;;;;5005409;28;20121;-69
2023/06/06 10:53:18;;;;;;;12.95;3.30;;;16.30;65.40;;;;;;5003250;28;20548;-67
2023/06/06 10:55:45;;;;;;;13.23;3.53;;;16.20;68.90;;;;;;5019803;28;20046;-68
2023/06/06 10:58:17;;;;;;;10.75;3.15;;;16.10;68.70;;;;;;5026371;28;20046;-67
2023/06/06 11:00:45;;;;;;;8.27;3.22;;;16.10;67.10;;;;;;5013071;28;20059;-67
2023/06/06 11:03:31;;;;;;;14.15;3.17;;;16.00;70.90;;;;;;5004240;28;20089;-67
2023/06/06 11:06:00;;;;;;;9.45;3.38;;;16.00;71.10;;;;;;5010919;28;20076;-67
2023/06/06 11:08:43;;;;;;;10.68;3.00;;;16.10;67.00;;;;;;5026567;28;20573;-67
2023/06/06 11:11:15;;;;;;;12.23;3.58;;;16.00;70.20;;;;;;5015085;28;20068;-67
2023/06/06 11:13:53;;;;;;;13.32;3.42;;;16.10;71.10;;;;;;5015374;28;20438;-67
2023/06/06 11:16:37;;;;;;;13.75;3.33;;;16.10;72.70;;;;;;5016529;28;20056;-67
2023/06/06 11:19:06;;;;;;;6.18;2.65;;;16.10;74.30;;;;;;5011922;28;20049;-67
2023/06/06 11:21:36;;;;;;;15.63;3.47;;;16.10;74.30;;;;;;5020124;28;20042;-68
2023/06/06 11:24:03;;;;;;;9.88;3.15;;;16.20;73.40;;;;;;5019368;28;20045;-68
2023/06/06 11:26:28;;;;;;;8.90;3.15;;;16.20;71.40;;;;;;5014840;28;20084;-68
2023/06/06 11:28:56;;;;;;;15.07;3.88;;;16.20;70.40;;;;;;5010250;28;20115;-68
2023/06/06 11:31:26;;;;;;;10.27;3.03;;;16.20;67.70;;;;;;5016102;28;20046;-68
2023/06/06 11:34:02;;;;;;;9.25;3.42;;;16.10;66.60;;;;;;5005783;28;20072;-68
2023/06/06 11:36:29;;;;;;;12.55;3.15;;;16.00;71.10;;;;;;4984588;28;20511;-68
2023/06/06 11:38:59;;;;;;;9.20;2.90;;;16.00;72.10;;;;;;5005386;28;20045;-68
2023/06/06 11:41:27;;;;;;;15.07;3.75;;;16.00;70.20;;;;;;5030104;28;20045;-68
2023/06/06 11:43:53;;;;;;;10.48;3.05;;;16.00;70.70;;;;;;5026311;28;20100;-68
2023/06/06 11:46:18;;;;;;;9.63;3.00;;;16.10;72.20;;;;;;5018505;28;20053;-68
2023/06/06 11:48:44;;;;;;;11.45;2.95;;;16.10;70.20;;;;;;5021360;28;20457;-67
2023/06/06 11:51:30;;;;;;;11.38;3.20;;;16.10;68.10;;;;;;5032861;28;20100;-69
2023/06/06 11:53:56;;;;;;;7.05;2.28;;;16.00;70.50;;;;;;5039982;28;21026;-68
2023/06/06 11:56:22;;;;;;;13.25;3.55;;;16.00;70.30;;;;;;5026137;28;20050;-67
2023/06/06 11:58:48;;;;;;;14.32;3.10;;;16.10;73.70;;;;;;5013402;28;20041;-67
2023/06/06 12:01:15;;;;;;;14.10;3.63;;;16.20;65.10;;;;;;5020408;28;20095;-69
2023/06/06 12:03:48;;;;;;;10.80;2.67;;;16.20;63.60;;;;;;5009722;28;20045;-68
2023/06/06 12:06:15;;;;;;;14.85;3.55;;;16.10;63.30;;;;;;5004265;28;20084;-68
2023/06/06 12:08:41;;;;;;;6.88;2.50;;;16.00;65.60;;;;;;5006085;28;20593;-68
2023/06/06 12:11:24;;;;;;;8.88;2.92;;;16.00;63.40;;;;;;5012999;28;20056;-68
2023/06/06 12:13:51;;;;;;;10.13;2.83;;;16.10;70.00;;;;;;5020736;28;20045;-68
2023/06/06 12:16:35;;;;;;;9.85;2.80;;;16.20;64.40;;;;;;5023260;28;20050;-68
2023/06/06 12:19:00;;;;;;;11.52;3.30;;;16.20;59.80;;;;;;5001374;28;20093;-68
2023/06/06 12:21:26;;;;;;;14.77;3.38;;;16.10;63.40;;;;;;5007501;28;20522;-69
2023/06/06 12:23:52;;;;;;;17.60;3.28;;;16.00;66.80;;;;;;4993340;28;20055;-67
2023/06/06 12:26:18;;;;;;;8.60;2.83;;;16.00;66.40;;;;;;5027468;28;20049;-69
2023/06/06 12:28:59;;;;;;;11.40;2.75;;;16.10;66.50;;;;;;5023245;28;20041;-69
2023/06/06 12:31:34;;;;;;;8.60;2.85;;;16.30;67.80;;;;;;5025061;28;20133;-67
2023/06/06 12:34:00;;;;;;;12.32;3.60;;;16.30;62.20;;;;;;5027459;28;20092;-68
2023/06/06 12:36:27;;;;;;;9.75;2.88;;;16.20;62.40;;;;;;5040870;28;20093;-68
2023/06/06 12:39:00;;;;;;;10.20;3.13;;;16.20;65.80;;;;;;5035011;28;20045;-68
2023/06/06 12:41:42;;;;;;;8.45;2.80;;;16.20;66.60;;;;;;5022938;28;20131;-68
2023/06/06 12:44:15;;;;;;;7.05;1.92;;;16.20;63.00;;;;;;5005308;28;20147;-68
2023/06/06 12:46:42;;;;;;;8.27;3.13;;;16.20;65.80;;;;;;5006854;28;20144;-67
2023/06/06 12:49:09;;;;;;;11.80;3.60;;;16.30;67.40;;;;;;5023843;28;20041;-68
2023/06/06 12:51:48;;;;;;;10.10;3.03;;;16.30;61.70;;;;;;5009284;28;20128;-67
2023/06/06 12:54:14;;;;;;;6.22;2.90;;;16.30;64.10;;;;;;5007222;28;20085;-69
2023/06/06 12:56:40;;;;;;;6.43;2.67;;;16.20;63.10;;;;;;5002661;28;20124;-69
2023/06/06 12:59:06;;;;;;;10.73;3.20;;;16.20;66.80;;;;;;5025596;28;20091;-68
2023/06/06 13:01:32;;;;;;;10.10;3.10;;;16.30;67.30;;;;;;5024580;28;20759;-68
2023/06/06 13:03:58;;;;;;;12.10;2.97;;;16.30;64.30;;;;;;5024430;28;20158;-67
2023/06/06 13:06:24;;;;;;;16.33;3.47;;;16.20;63.50;;;;;;5023618;28;20102;-69
2023/06/06 13:08:50;;;;;;;13.00;3.13;;;16.20;67.60;;;;;;5007454;28;20062;-68
2023/06/06 13:11:17;;;;;;;13.82;2.90;;;16.10;67.30;;;;;;5022581;28;20740;-68
2023/06/06 13:17:01;;;;;;;11.48;2.97;;;16.10;69.10;;;;;;4972135;23;20053;-68
2023/06/06 13:19:27;;;;;;;12.98;3.50;;;16.30;72.80;;;;;;4958834;28;20051;-69
2023/06/06 13:21:53;;;;;;;6.55;2.80;;;16.30;69.30;;;;;;4952883;28;20489;-69
2023/06/06 13:24:19;;;;;;;11.02;3.22;;;16.20;65.10;;;;;;4954408;28;20049;-69
2023/06/06 13:26:45;;;;;;;14.68;3.17;;;16.20;71.50;;;;;;4947723;28;20043;-69
2023/06/06 13:29:29;;;;;;;8.20;2.88;;;16.20;66.00;;;;;;4930343;28;20035;-69
2023/06/06 13:31:56;;;;;;;8.85;2.88;;;16.20;73.90;;;;;;4971462;28;20050;-68
2023/06/06 13:34:22;;;;;;;9.45;2.80;;;16.20;64.70;;;;;;4950295;28;20123;-69
2023/06/06 13:36:47;;;;;;;5.95;2.45;;;16.20;71.70;;;;;;4941133;29;20058;-70
2023/06/06 13:39:14;;;;;;;7.72;3.00;;;16.10;66.80;;;;;;4939034;28;20514;-68
2023/06/06 13:41:42;;;;;;;10.68;3.10;;;16.10;69.50;;;;;;4941305;28;21454;-69
2023/06/06 13:44:18;;;;;;;16.65;3.97;;;16.00;70.10;;;;;;4962885;28;20149;-68
2023/06/06 13:46:45;;;;;;;14.60;3.10;;;16.00;72.50;;;;;;4983498;28;20290;-70
2023/06/06 13:49:13;;;;;;;12.18;2.72;;;16.00;72.80;;;;;;4954736;28;20105;-70
2023/06/06 13:51:41;;;;;;;12.20;3.38;;;16.00;68.40;;;;;;4939305;28;20461;-70
2023/06/06 13:54:09;;;;;;;9.45;2.80;;;15.90;71.00;;;;;;4957354;28;20061;-69
2023/06/06 13:56:35;;;;;;;8.73;2.53;;;16.10;71.40;;;;;;4954165;28;20051;-70
2023/06/06 13:59:03;;;;;;;10.00;2.90;;;16.10;75.60;;;;;;4969954;28;20138;-71
2023/06/06 14:01:29;;;;;;;14.02;3.00;;;16.10;71.40;;;;;;4970230;28;20404;-70
2023/06/06 14:03:56;;;;;;;14.45;3.20;;;16.10;71.70;;;;;;4964797;28;20101;-70
2023/06/06 14:06:33;;;;;;;7.60;2.65;;;16.20;73.00;;;;;;4951229;28;20559;-69
2023/06/06 14:08:59;;;;;;;5.38;2.50;;;16.20;71.40;;;;;;4949072;28;20053;-70
2023/06/06 14:11:26;;;;;;;12.88;3.25;;;16.20;69.00;;;;;;4951798;28;20445;-69
2023/06/06 14:13:52;;;;;;;8.00;2.55;;;16.20;68.60;;;;;;4951275;28;20101;-71
2023/06/06 14:16:18;;;;;;;11.00;3.00;;;16.30;67.70;;;;;;4951500;28;20512;-69
2023/06/06 14:18:46;;;;;;;8.80;2.92;;;16.30;71.00;;;;;;4949225;28;20058;-69
2023/06/06 14:23:43;;;;;;;13.60;2.72;;;16.20;70.40;;;;;;4947054;28;20047;-70
2023/06/06 14:26:09;;;;;;;9.57;2.80;;;16.20;68.50;;;;;;4965945;28;20049;-69
2023/06/06 14:28:54;;;;;;;8.63;2.72;;;16.20;67.30;;;;;;4949908;28;20134;-69
2023/06/06 14:31:20;;;;;;;10.95;2.70;;;16.10;66.80;;;;;;4949503;28;20042;-68
2023/06/06 14:33:58;;;;;;;14.40;2.65;;;16.00;66.90;;;;;;4965764;28;20047;-69
2023/06/06 14:36:24;;;;;;;8.00;2.63;;;16.00;68.60;;;;;;4948701;28;20520;-70
2023/06/06 14:38:50;;;;;;;5.88;2.90;;;15.80;69.30;;;;;;4964662;28;20436;-69
2023/06/06 14:41:17;;;;;;;12.88;2.80;;;15.90;70.10;;;;;;4949425;28;20571;-68
2023/06/06 14:43:43;;;;;;;8.27;2.47;;;15.90;72.80;;;;;;4936646;28;20146;-68
2023/06/06 14:46:10;;;;;;;13.52;2.70;;;16.00;74.50;;;;;;4952745;28;20050;-67
2023/06/06 14:55:49;;;;;;;7.55;2.60;;;15.90;67.90;;;;;;4967299;28;20057;-68
2023/06/06 14:59:09;;;;;;;6.72;2.53;;;15.90;68.50;;;;;;4958963;28;20069;-69
2023/06/06 15:01:56;;;;;;;12.50;2.88;;;15.70;68.90;;;;;;4970325;23;20065;-69
2023/06/06 15:04:34;;;;;;;5.88;2.40;;;15.80;64.80;;;;;;4950257;29;20094;-69
2023/06/06 15:07:18;;;;;;;8.57;2.60;;;15.70;71.20;;;;;;4943911;29;20517;-68
2023/06/06 15:09:47;;;;;;;7.15;2.28;;;15.80;73.00;;;;;;4917426;29;20043;-68